Time;durP1;ratioP1;P1;durP2;ratioP2;P2;SDS_P1;SDS_P2;PMS_P1;PMS_P2;Temp;Humidity;BMP_temperature;BMP_pressure;BME280_temperature;BME280_humidity;BME280_pressure;Samples;Min_cycle;Max_cycle;Signal;HPM_P1;HPM_P2
2024/01/04 00:00:45;;;;;;;12.57;8.60;;;6.80;99.90;;;;;;4890390;29;20037;-77
2024/01/04 00:03:10;;;;;;;17.42;9.02;;;6.80;99.90;;;;;;4896059;29;20424;-77
2024/01/04 00:05:36;;;;;;;11.25;7.18;;;6.80;99.90;;;;;;4898203;29;20434;-76
2024/01/04 00:08:01;;;;;;;19.30;9.32;;;6.80;99.90;;;;;;4913604;29;20037;-76
2024/01/04 00:10:27;;;;;;;13.07;7.88;;;6.80;99.90;;;;;;4897862;29;20048;-76
2024/01/04 00:12:53;;;;;;;13.57;7.78;;;6.80;99.90;;;;;;4899362;29;20076;-77
2024/01/04 00:15:19;;;;;;;10.25;6.78;;;6.80;99.90;;;;;;4868415;29;20068;-76
2024/01/04 00:17:44;;;;;;;9.05;5.38;;;6.80;99.90;;;;;;4907483;29;20415;-77
2024/01/04 00:20:10;;;;;;;8.27;4.60;;;6.80;99.90;;;;;;4908095;29;20072;-77
2024/01/04 00:22:36;;;;;;;8.80;5.30;;;6.80;99.90;;;;;;4909172;29;20104;-77
2024/01/04 00:25:02;;;;;;;7.72;4.68;;;6.70;99.90;;;;;;4912665;29;20045;-77
2024/01/04 00:27:28;;;;;;;8.68;4.53;;;6.70;99.90;;;;;;4897198;29;20111;-77
2024/01/04 00:29:53;;;;;;;8.38;4.30;;;6.70;99.90;;;;;;4911104;29;20567;-77
2024/01/04 00:32:19;;;;;;;6.43;3.00;;;6.70;99.90;;;;;;4897413;29;20040;-77
2024/01/04 00:34:44;;;;;;;8.63;3.08;;;6.60;99.90;;;;;;4897269;29;20127;-76
2024/01/04 00:37:10;;;;;;;6.43;3.13;;;6.60;99.90;;;;;;4894061;29;20052;-77
2024/01/04 00:39:36;;;;;;;8.50;2.60;;;6.60;99.90;;;;;;4884325;29;20477;-77
2024/01/04 00:42:04;;;;;;;8.27;2.25;;;6.60;99.90;;;;;;4897296;29;20049;-77
2024/01/04 00:44:29;;;;;;;8.02;2.45;;;6.50;99.90;;;;;;4897010;29;20036;-77
2024/01/04 00:46:55;;;;;;;6.68;2.53;;;6.50;99.90;;;;;;4881530;29;20044;-77
2024/01/04 00:49:20;;;;;;;3.95;1.70;;;6.50;99.90;;;;;;4881624;29;20048;-77
2024/01/04 00:51:47;;;;;;;6.65;2.13;;;6.40;99.90;;;;;;4911387;29;20051;-76
2024/01/04 00:54:13;;;;;;;8.18;2.25;;;6.40;99.90;;;;;;4899144;29;20488;-76
2024/01/04 00:56:38;;;;;;;8.70;2.42;;;6.40;99.90;;;;;;4896805;29;20049;-76
2024/01/04 00:59:04;;;;;;;6.20;2.42;;;6.40;99.90;;;;;;4897010;29;20055;-77
2024/01/04 01:01:32;;;;;;;6.10;2.42;;;6.40;99.90;;;;;;4892573;29;20048;-77
2024/01/04 01:03:58;;;;;;;6.05;2.22;;;6.30;99.90;;;;;;4889037;29;20039;-76
2024/01/04 01:06:23;;;;;;;6.85;2.05;;;6.30;99.90;;;;;;4896734;29;20123;-77
2024/01/04 01:08:49;;;;;;;6.30;1.92;;;6.30;99.90;;;;;;4895600;29;20044;-77
2024/01/04 01:11:15;;;;;;;5.38;1.73;;;6.30;99.90;;;;;;4911175;29;20076;-77
2024/01/04 01:13:40;;;;;;;7.28;2.25;;;6.30;99.90;;;;;;4907794;29;20486;-76
2024/01/04 01:16:06;;;;;;;6.07;2.10;;;6.30;99.90;;;;;;4883142;29;20047;-76
2024/01/04 01:18:32;;;;;;;4.95;2.10;;;6.30;99.90;;;;;;4896650;29;20076;-76
2024/01/04 01:21:00;;;;;;;7.80;2.50;;;6.30;99.90;;;;;;4912419;29;20036;-77
2024/01/04 01:23:26;;;;;;;6.75;2.42;;;6.30;99.90;;;;;;4892284;29;20049;-77
2024/01/04 01:25:52;;;;;;;10.00;3.22;;;6.20;99.90;;;;;;4903818;29;20043;-77
2024/01/04 01:28:17;;;;;;;9.20;3.47;;;6.20;99.90;;;;;;4896605;29;20558;-77
2024/01/04 01:30:43;;;;;;;8.77;3.20;;;6.20;99.90;;;;;;4895812;29;20049;-77
2024/01/04 01:33:08;;;;;;;7.95;3.33;;;6.10;99.90;;;;;;4896202;29;20044;-77
2024/01/04 01:35:34;;;;;;;10.73;5.00;;;6.10;99.90;;;;;;4896225;29;20052;-77
2024/01/04 01:37:59;;;;;;;9.45;3.85;;;6.10;99.90;;;;;;4896170;29;20055;-77
2024/01/04 01:40:25;;;;;;;10.85;4.85;;;6.10;99.90;;;;;;4880050;29;20036;-77
2024/01/04 01:42:50;;;;;;;10.48;4.80;;;6.10;99.90;;;;;;4895593;29;20499;-77
2024/01/04 01:45:17;;;;;;;10.63;4.60;;;6.10;99.90;;;;;;4896255;29;20381;-77
2024/01/04 01:47:45;;;;;;;9.15;3.78;;;6.10;99.90;;;;;;4896068;29;20128;-77
2024/01/04 01:50:11;;;;;;;7.82;3.42;;;6.10;99.90;;;;;;4896096;29;20123;-77
2024/01/04 01:52:37;;;;;;;9.30;3.50;;;6.10;99.90;;;;;;4891903;29;20127;-77
2024/01/04 01:55:03;;;;;;;7.18;2.72;;;6.10;99.90;;;;;;4904879;29;20041;-77
2024/01/04 01:57:32;;;;;;;10.85;3.08;;;6.10;99.90;;;;;;4895216;29;20045;-77
2024/01/04 01:59:59;;;;;;;7.15;2.75;;;6.00;99.90;;;;;;4895284;29;20052;-77
2024/01/04 02:02:25;;;;;;;7.93;2.20;;;6.10;99.90;;;;;;4911634;29;20055;-77
2024/01/04 02:04:50;;;;;;;6.93;1.77;;;6.00;99.90;;;;;;4895735;29;20135;-77
2024/01/04 02:07:16;;;;;;;6.40;1.50;;;6.00;99.90;;;;;;4895065;29;20071;-77
2024/01/04 02:09:42;;;;;;;4.20;1.00;;;6.00;99.90;;;;;;4910780;29;20510;-77
2024/01/04 02:12:10;;;;;;;5.35;1.70;;;6.00;99.90;;;;;;4877044;29;20512;-77
2024/01/04 02:14:36;;;;;;;4.18;1.20;;;6.00;99.90;;;;;;4862453;29;20069;-77
2024/01/04 02:17:02;;;;;;;6.03;1.20;;;6.00;99.90;;;;;;4887311;29;20053;-77
2024/01/04 02:19:29;;;;;;;5.72;1.40;;;6.00;99.90;;;;;;4876954;29;20048;-77
2024/01/04 02:21:55;;;;;;;7.65;1.77;;;6.00;99.90;;;;;;4898534;29;20432;-77
2024/01/04 02:24:20;;;;;;;5.18;1.70;;;5.90;99.90;;;;;;4895313;29;20040;-77
2024/01/04 02:26:46;;;;;;;4.00;1.10;;;5.90;99.90;;;;;;4895441;29;20075;-77
2024/01/04 02:29:11;;;;;;;4.97;1.15;;;5.90;99.90;;;;;;4895845;29;20044;-77
2024/01/04 02:31:37;;;;;;;6.63;1.48;;;6.00;99.90;;;;;;4894349;29;20047;-77
2024/01/04 02:34:02;;;;;;;5.80;1.65;;;5.90;99.90;;;;;;4895511;29;20179;-77
2024/01/04 02:36:28;;;;;;;4.18;1.25;;;5.90;99.90;;;;;;4911338;29;20036;-77
2024/01/04 02:38:54;;;;;;;6.90;1.65;;;5.90;99.90;;;;;;4888250;29;20045;-77
2024/01/04 02:41:19;;;;;;;6.43;2.20;;;5.90;99.90;;;;;;4889638;29;20516;-77
2024/01/04 02:43:45;;;;;;;6.70;2.20;;;5.90;99.90;;;;;;4895478;29;20136;-77
2024/01/04 02:46:10;;;;;;;7.22;1.60;;;5.90;99.90;;;;;;4888199;29;20551;-77
2024/01/04 02:48:36;;;;;;;5.85;1.33;;;5.90;99.90;;;;;;4894465;29;20511;-77
2024/01/04 02:51:01;;;;;;;5.53;1.25;;;5.90;99.90;;;;;;4914789;29;20036;-77
2024/01/04 02:53:27;;;;;;;7.82;1.40;;;5.90;99.90;;;;;;4899111;29;20044;-77
2024/01/04 02:55:52;;;;;;;4.43;1.30;;;5.90;99.90;;;;;;4899139;29;20051;-77
2024/01/04 02:58:18;;;;;;;7.13;1.83;;;5.90;99.90;;;;;;4890468;29;20033;-77
2024/01/04 03:00:44;;;;;;;4.57;1.38;;;5.90;99.90;;;;;;4892047;29;20040;-77
2024/01/04 03:03:09;;;;;;;6.28;1.67;;;5.90;99.90;;;;;;4886325;29;20045;-77
2024/01/04 03:05:35;;;;;;;4.50;1.60;;;5.90;99.90;;;;;;4864821;29;20127;-77
2024/01/04 03:08:00;;;;;;;6.20;2.00;;;5.90;99.90;;;;;;4859393;29;20044;-77
2024/01/04 03:10:26;;;;;;;7.25;2.30;;;5.90;99.90;;;;;;4882187;29;20045;-77
2024/01/04 03:12:51;;;;;;;8.10;2.10;;;5.90;99.90;;;;;;4914670;29;20104;-77
2024/01/04 03:15:17;;;;;;;5.95;1.90;;;5.90;99.90;;;;;;4898845;29;20045;-77
2024/01/04 03:17:43;;;;;;;6.88;2.08;;;5.90;99.90;;;;;;4898731;29;20075;-77
2024/01/04 03:20:09;;;;;;;8.13;1.80;;;5.90;99.90;;;;;;4898674;29;20048;-77
2024/01/04 03:22:34;;;;;;;9.00;1.70;;;5.90;99.90;;;;;;4898772;29;20492;-77
2024/01/04 03:25:00;;;;;;;5.93;1.88;;;5.90;99.90;;;;;;4909155;29;20046;-77
2024/01/04 03:27:25;;;;;;;6.15;1.58;;;5.80;99.90;;;;;;4898553;29;20033;-77
2024/01/04 03:29:52;;;;;;;5.43;1.77;;;5.80;99.90;;;;;;4897736;29;20039;-77
2024/01/04 03:32:18;;;;;;;7.07;1.75;;;5.90;99.90;;;;;;4882904;29;20040;-77
2024/01/04 03:34:43;;;;;;;5.55;1.90;;;5.80;99.90;;;;;;4897388;29;20500;-77
2024/01/04 03:37:09;;;;;;;6.50;1.52;;;5.80;99.90;;;;;;4914146;29;20084;-77
2024/01/04 03:39:34;;;;;;;7.80;2.03;;;5.80;99.90;;;;;;4897742;29;20041;-77
2024/01/04 03:42:00;;;;;;;5.15;1.60;;;5.80;99.90;;;;;;4895407;29;20101;-77
2024/01/04 03:44:25;;;;;;;5.68;1.67;;;5.80;99.90;;;;;;4879583;29;20496;-77
2024/01/04 03:46:51;;;;;;;5.32;1.60;;;5.80;99.90;;;;;;4873132;29;20093;-77
2024/01/04 03:49:16;;;;;;;5.10;1.65;;;5.80;99.90;;;;;;4907008;29;20096;-77
2024/01/04 03:51:42;;;;;;;5.65;1.88;;;5.80;99.90;;;;;;4897494;29;20088;-77
2024/01/04 03:54:08;;;;;;;8.23;2.22;;;5.80;99.90;;;;;;4913685;29;20047;-77
2024/01/04 03:58:59;;;;;;;5.28;2.10;;;5.70;99.90;;;;;;4957171;23;20048;-76
2024/01/04 04:01:25;;;;;;;8.30;1.95;;;5.70;99.90;;;;;;4919878;29;20447;-76
2024/01/04 04:03:53;;;;;;;8.18;2.28;;;5.70;99.90;;;;;;4920582;29;20074;-76
2024/01/04 04:06:19;;;;;;;9.50;2.25;;;5.60;99.90;;;;;;4920477;29;20075;-75
2024/01/04 04:08:45;;;;;;;8.18;2.30;;;5.50;99.90;;;;;;4919446;29;20048;-75
2024/01/04 04:11:17;;;;;;;11.10;2.25;;;5.60;99.90;;;;;;4889022;29;20053;-76
2024/01/04 04:13:43;;;;;;;5.97;2.72;;;5.50;99.90;;;;;;4886547;29;20040;-75
2024/01/04 04:16:09;;;;;;;6.45;1.92;;;5.50;99.90;;;;;;4901723;29;20040;-75
2024/01/04 04:18:34;;;;;;;6.95;1.90;;;5.50;99.90;;;;;;4901809;29;20387;-76
2024/01/04 04:21:00;;;;;;;6.68;1.92;;;5.50;99.90;;;;;;4901100;29;20364;-76
2024/01/04 04:23:26;;;;;;;6.28;2.08;;;5.50;99.90;;;;;;4901334;29;20462;-76
2024/01/04 04:25:51;;;;;;;7.05;2.58;;;5.40;99.90;;;;;;4901170;29;20048;-75
2024/01/04 04:28:17;;;;;;;9.10;2.30;;;5.40;99.90;;;;;;4917055;29;20048;-76
2024/01/04 04:30:43;;;;;;;8.15;2.25;;;5.40;99.90;;;;;;4915510;29;20055;-76
2024/01/04 04:33:08;;;;;;;6.65;2.08;;;5.40;99.90;;;;;;4901123;29;20406;-76
2024/01/04 04:35:34;;;;;;;7.53;1.80;;;5.40;99.90;;;;;;4901357;29;20036;-76
2024/01/04 04:38:00;;;;;;;5.55;1.80;;;5.40;99.90;;;;;;4900842;29;20044;-75
2024/01/04 04:40:25;;;;;;;6.07;1.70;;;5.40;99.90;;;;;;4899610;29;20123;-76
2024/01/04 04:42:51;;;;;;;6.10;1.70;;;5.50;99.90;;;;;;4916314;29;20044;-76
2024/01/04 04:45:17;;;;;;;6.90;1.73;;;5.50;99.90;;;;;;4899634;29;20100;-75
2024/01/04 04:47:42;;;;;;;7.47;2.00;;;5.40;99.90;;;;;;4882067;29;20080;-75
2024/01/04 04:50:08;;;;;;;6.50;1.77;;;5.40;99.90;;;;;;4876084;29;20049;-75
2024/01/04 04:52:34;;;;;;;9.25;1.90;;;5.40;99.90;;;;;;4865450;29;20453;-75
2024/01/04 04:55:00;;;;;;;4.40;1.23;;;5.40;99.90;;;;;;4895232;29;20051;-74
2024/01/04 04:57:25;;;;;;;9.43;1.70;;;5.40;99.90;;;;;;4900767;29;20075;-76
2024/01/04 04:59:51;;;;;;;5.15;1.40;;;5.40;99.90;;;;;;4897302;29;20106;-76
2024/01/04 05:02:16;;;;;;;8.30;1.92;;;5.30;99.90;;;;;;4893727;29;20083;-76
2024/01/04 05:04:43;;;;;;;5.18;1.60;;;5.30;99.90;;;;;;4900092;29;20040;-75
2024/01/04 05:07:09;;;;;;;6.18;1.40;;;5.30;99.90;;;;;;4899882;29;20507;-76
2024/01/04 05:09:35;;;;;;;4.63;1.10;;;5.30;99.90;;;;;;4899440;29;20130;-75
2024/01/04 05:12:01;;;;;;;4.20;1.25;;;5.30;99.90;;;;;;4899937;29;20488;-76
2024/01/04 05:14:27;;;;;;;4.35;1.10;;;5.30;99.90;;;;;;4900547;29;20044;-76
2024/01/04 05:16:53;;;;;;;7.30;1.48;;;5.30;99.90;;;;;;4916024;29;20040;-76
2024/01/04 05:19:18;;;;;;;5.30;1.55;;;5.30;99.90;;;;;;4900222;29;20044;-76
2024/01/04 05:21:44;;;;;;;4.15;1.33;;;5.30;99.90;;;;;;4900479;29;20044;-76
2024/01/04 05:24:10;;;;;;;8.43;1.58;;;5.30;99.90;;;;;;4895121;29;20303;-76
2024/01/04 05:26:35;;;;;;;5.95;1.23;;;5.30;99.90;;;;;;4900081;29;20550;-76
2024/01/04 05:29:01;;;;;;;4.32;1.38;;;5.30;99.90;;;;;;4890638;29;20052;-76
2024/01/04 05:31:27;;;;;;;5.63;1.30;;;5.30;99.90;;;;;;4896328;29;20410;-76
2024/01/04 05:33:53;;;;;;;3.63;1.10;;;5.30;99.90;;;;;;4899781;29;20040;-76
2024/01/04 05:36:19;;;;;;;5.82;1.20;;;5.30;99.90;;;;;;4899120;29;20047;-75
2024/01/04 05:38:44;;;;;;;6.25;1.48;;;5.30;99.90;;;;;;4899062;29;20506;-76
2024/01/04 05:41:10;;;;;;;5.43;1.27;;;5.20;99.90;;;;;;4899148;29;20079;-76
2024/01/04 05:43:36;;;;;;;4.50;1.23;;;5.30;99.90;;;;;;4899886;29;20127;-76
2024/01/04 05:46:04;;;;;;;4.03;1.20;;;5.20;99.90;;;;;;4900946;29;20036;-75
2024/01/04 05:48:31;;;;;;;7.47;1.50;;;5.20;99.90;;;;;;4895572;29;20044;-76
2024/01/04 05:50:56;;;;;;;4.53;1.10;;;5.20;99.90;;;;;;4893150;29;20043;-76
2024/01/04 05:53:22;;;;;;;7.20;1.65;;;5.20;99.90;;;;;;4899808;29;20044;-76
2024/01/04 05:55:48;;;;;;;5.10;1.60;;;5.10;99.90;;;;;;4900441;29;20117;-75
2024/01/04 05:58:13;;;;;;;4.57;1.55;;;5.10;99.90;;;;;;4899624;29;20040;-75
2024/01/04 06:00:39;;;;;;;8.07;1.52;;;5.10;99.90;;;;;;4894362;29;20439;-76
2024/01/04 06:03:05;;;;;;;6.03;2.42;;;5.20;99.90;;;;;;4884586;29;20123;-76
2024/01/04 06:05:30;;;;;;;6.07;1.80;;;5.20;99.90;;;;;;4880307;29;20384;-76
2024/01/04 06:07:56;;;;;;;4.97;2.00;;;5.20;99.90;;;;;;4897047;29;20036;-76
2024/01/04 06:10:22;;;;;;;4.97;1.73;;;5.10;99.90;;;;;;4892093;29;20040;-77
2024/01/04 06:12:50;;;;;;;7.28;1.52;;;5.10;99.90;;;;;;4898655;29;20044;-75
2024/01/04 06:15:16;;;;;;;2.95;1.10;;;5.10;99.90;;;;;;4897137;29;20059;-76
2024/01/04 06:17:42;;;;;;;4.18;1.58;;;5.10;99.90;;;;;;4898248;29;20114;-77
2024/01/04 06:20:08;;;;;;;6.57;1.60;;;5.20;99.90;;;;;;4896771;29;20071;-77
2024/01/04 06:22:34;;;;;;;4.93;1.40;;;5.10;99.90;;;;;;4898913;29;20041;-76
2024/01/04 06:25:00;;;;;;;5.30;2.03;;;5.10;99.90;;;;;;4897392;29;20047;-76
2024/01/04 06:27:25;;;;;;;6.15;1.77;;;5.10;99.90;;;;;;4882071;29;20046;-76
2024/01/04 06:29:51;;;;;;;6.53;1.65;;;5.00;99.90;;;;;;4881016;29;20040;-76
2024/01/04 06:32:17;;;;;;;8.85;1.67;;;5.10;99.90;;;;;;4881569;29;20048;-76
2024/01/04 06:34:42;;;;;;;5.50;1.70;;;5.00;99.90;;;;;;4896643;29;20040;-75
2024/01/04 06:37:26;;;;;;;;;;;;;;;;;;;;;
2024/01/04 06:39:52;;;;;;;6.93;2.00;;;5.00;99.90;;;;;;4906343;29;20055;-77
2024/01/04 06:42:19;;;;;;;7.47;2.10;;;5.00;99.90;;;;;;4898461;29;20044;-77
2024/01/04 06:44:47;;;;;;;5.43;1.40;;;5.00;99.90;;;;;;4897200;29;20040;-77
2024/01/04 06:47:18;;;;;;;5.57;1.50;;;5.00;99.90;;;;;;4898266;29;20495;-77
2024/01/04 06:49:44;;;;;;;5.63;1.40;;;5.00;99.90;;;;;;4883632;29;20040;-77
2024/01/04 06:52:11;;;;;;;5.80;1.48;;;5.00;99.90;;;;;;4898771;29;20044;-77
2024/01/04 06:54:40;;;;;;;5.78;1.20;;;5.00;99.90;;;;;;4897755;29;20120;-77
2024/01/04 06:57:11;;;;;;;5.97;1.40;;;5.00;99.90;;;;;;4898616;29;20071;-77
2024/01/04 06:59:37;;;;;;;5.80;1.40;;;4.90;99.90;;;;;;4898527;29;20040;-77
2024/01/04 07:02:05;;;;;;;6.68;1.65;;;5.00;99.90;;;;;;4898756;29;20444;-77
2024/01/04 07:04:36;;;;;;;3.80;1.60;;;4.90;99.90;;;;;;4890008;29;20044;-78
2024/01/04 07:07:53;;;;;;;4.32;1.42;;;4.90;99.90;;;;;;4890891;29;20048;-77
2024/01/04 07:14:28;;;;;;;5.00;1.80;;;4.90;99.90;;;;;;4859804;29;20075;-78
2024/01/04 07:16:54;;;;;;;6.47;2.08;;;4.90;99.90;;;;;;4854610;29;20045;-76
2024/01/04 07:19:22;;;;;;;5.68;1.70;;;4.90;99.90;;;;;;4843468;29;20042;-78
2024/01/04 07:21:51;;;;;;;7.15;1.80;;;4.90;99.90;;;;;;4841989;29;20045;-78
2024/01/04 07:24:32;;;;;;;5.55;1.73;;;4.90;99.90;;;;;;4875026;29;20077;-78
2024/01/04 07:27:03;;;;;;;4.13;1.58;;;4.80;99.90;;;;;;4880130;29;20053;-78
2024/01/04 07:29:53;;;;;;;4.95;2.08;;;4.80;99.90;;;;;;4880446;29;20044;-78
2024/01/04 07:32:19;;;;;;;8.18;2.00;;;4.80;99.90;;;;;;4880170;29;20048;-78
2024/01/04 07:34:52;;;;;;;7.95;1.80;;;4.80;99.90;;;;;;4880919;29;20049;-78
2024/01/04 07:37:20;;;;;;;3.95;1.33;;;4.80;99.90;;;;;;4883075;29;20467;-78
2024/01/04 07:39:52;;;;;;;5.68;1.40;;;4.80;99.90;;;;;;4884508;29;20503;-78
2024/01/04 07:42:18;;;;;;;7.35;1.58;;;4.70;99.90;;;;;;4883628;29;20140;-78
2024/01/04 07:44:56;;;;;;;5.93;1.50;;;4.80;99.90;;;;;;4883674;29;20036;-78
2024/01/04 07:47:30;;;;;;;4.80;1.33;;;4.80;99.90;;;;;;4883539;29;20041;-78
2024/01/04 07:50:06;;;;;;;3.00;1.30;;;4.70;99.90;;;;;;4883748;29;20062;-78
2024/01/04 07:52:38;;;;;;;4.85;1.42;;;4.80;99.90;;;;;;4883764;29;20048;-78
2024/01/04 07:55:10;;;;;;;5.38;1.52;;;4.80;99.90;;;;;;4883073;29;20108;-78
2024/01/04 07:57:36;;;;;;;4.93;1.80;;;4.80;99.90;;;;;;4883482;29;20388;-78
2024/01/04 08:00:11;;;;;;;4.35;1.45;;;4.80;99.90;;;;;;4883601;29;20495;-78
2024/01/04 08:02:57;;;;;;;5.07;1.30;;;4.80;99.90;;;;;;4884275;29;20037;-78
2024/01/04 08:05:32;;;;;;;3.60;1.30;;;4.70;99.90;;;;;;4883374;29;20455;-78
2024/01/04 08:08:00;;;;;;;6.05;1.70;;;4.80;99.90;;;;;;4882690;29;20095;-78
2024/01/04 08:10:35;;;;;;;4.15;1.42;;;4.80;99.90;;;;;;4882888;29;20041;-78
2024/01/04 08:13:10;;;;;;;5.85;1.60;;;4.80;99.90;;;;;;4882503;29;20051;-78
2024/01/04 08:15:44;;;;;;;6.35;1.83;;;4.80;99.90;;;;;;4882978;29;20056;-78
2024/01/04 08:18:16;;;;;;;4.25;1.38;;;4.80;99.90;;;;;;4883132;29;20094;-78
2024/01/04 08:20:54;;;;;;;3.67;1.67;;;4.80;99.90;;;;;;4883322;29;20044;-78
2024/01/04 08:23:35;;;;;;;5.65;1.90;;;4.90;99.90;;;;;;4879904;29;20052;-78
2024/01/04 08:26:04;;;;;;;4.88;1.60;;;4.80;99.90;;;;;;4882783;29;20051;-78
2024/01/04 08:28:39;;;;;;;4.45;1.63;;;4.90;99.90;;;;;;4882745;29;20422;-78
2024/01/04 08:31:08;;;;;;;8.48;2.20;;;4.90;99.90;;;;;;4883069;29;20044;-78
2024/01/04 08:33:50;;;;;;;5.70;1.67;;;4.90;99.90;;;;;;4882239;29;20531;-78
2024/01/04 08:36:24;;;;;;;6.47;1.58;;;5.00;99.90;;;;;;4882764;29;20449;-78
2024/01/04 08:38:52;;;;;;;5.47;1.65;;;4.90;99.90;;;;;;4876132;29;20051;-78
2024/01/04 08:41:25;;;;;;;3.08;1.25;;;4.90;99.90;;;;;;4882241;29;20033;-78
2024/01/04 08:43:59;;;;;;;5.40;1.95;;;4.90;99.90;;;;;;4881987;29;20051;-78
2024/01/04 08:46:37;;;;;;;6.88;1.52;;;5.00;99.90;;;;;;4882673;29;20037;-78
2024/01/04 08:49:12;;;;;;;4.47;1.33;;;5.00;99.90;;;;;;4882479;29;20120;-78
2024/01/04 08:51:51;;;;;;;4.57;1.70;;;4.90;99.90;;;;;;4882584;29;20041;-78
2024/01/04 08:54:25;;;;;;;4.95;1.58;;;5.00;99.90;;;;;;4881218;29;20088;-78
2024/01/04 08:57:06;;;;;;;5.53;1.80;;;5.00;99.90;;;;;;4882222;29;20055;-78
2024/01/04 08:59:33;;;;;;;5.10;1.58;;;5.10;99.90;;;;;;4881698;29;20047;-78
2024/01/04 09:02:20;;;;;;;5.07;1.60;;;5.00;99.90;;;;;;4881520;29;20052;-78
2024/01/04 09:04:46;;;;;;;5.45;1.65;;;5.00;99.90;;;;;;4881943;29;20083;-78
2024/01/04 09:07:15;;;;;;;6.47;1.48;;;5.10;99.90;;;;;;4881941;29;20040;-78
2024/01/04 09:09:41;;;;;;;4.55;1.20;;;5.10;99.90;;;;;;4881884;29;20052;-78
2024/01/04 09:12:13;;;;;;;7.25;1.70;;;5.10;99.90;;;;;;4882049;29;20083;-78
2024/01/04 09:14:46;;;;;;;3.30;1.17;;;5.10;99.90;;;;;;4881688;29;20040;-78
2024/01/04 09:17:14;;;;;;;;;;;5.10;99.90;;;;;;4881959;29;20087;-78
2024/01/04 09:19:48;;;;;;;4.57;1.27;;;5.10;99.90;;;;;;4881612;29;19931;-78
2024/01/04 09:22:14;;;;;;;4.65;1.42;;;5.10;99.90;;;;;;4881927;29;20112;-78
2024/01/04 09:24:53;;;;;;;4.85;1.55;;;5.20;99.90;;;;;;4880840;29;20465;-78
2024/01/04 09:27:23;;;;;;;5.43;1.70;;;5.20;99.90;;;;;;4881619;29;20063;-78
2024/01/04 09:30:14;;;;;;;6.72;1.80;;;5.20;99.90;;;;;;4881441;29;20052;-78
2024/01/04 09:32:48;;;;;;;5.32;1.70;;;5.20;99.90;;;;;;4881619;29;20052;-78
2024/01/04 09:35:25;;;;;;;6.10;1.33;;;5.10;99.90;;;;;;4881280;29;20061;-78
2024/01/04 09:37:53;;;;;;;6.75;1.98;;;5.20;99.90;;;;;;4881231;29;20048;-78
2024/01/04 09:40:28;;;;;;;5.15;1.48;;;5.20;99.90;;;;;;4881132;29;20108;-78
2024/01/04 09:43:06;;;;;;;4.60;1.50;;;5.30;99.90;;;;;;4881435;29;20407;-78
2024/01/04 09:45:47;;;;;;;7.13;1.83;;;5.30;99.90;;;;;;4881428;29;20059;-78
2024/01/04 09:48:17;;;;;;;7.05;1.65;;;5.30;99.90;;;;;;4881263;29;20099;-78
2024/01/04 09:50:54;;;;;;;8.20;3.42;;;5.40;99.90;;;;;;4882176;29;20056;-78
2024/01/04 09:53:41;;;;;;;5.45;1.98;;;5.50;99.90;;;;;;4881589;29;20481;-78
2024/01/04 09:56:14;;;;;;;6.00;1.77;;;5.50;99.90;;;;;;4881111;29;20087;-78
2024/01/04 09:58:40;;;;;;;4.43;1.83;;;5.50;99.90;;;;;;4921154;23;20494;-83
2024/01/04 10:01:07;;;;;;;6.25;1.42;;;5.50;99.90;;;;;;4950017;29;20062;-83
2024/01/04 10:03:33;;;;;;;4.35;1.30;;;5.60;99.90;;;;;;4917944;29;20054;-83
2024/01/04 10:06:02;;;;;;;4.50;1.50;;;5.50;99.90;;;;;;4933952;29;20040;-83
2024/01/04 10:08:36;;;;;;;4.22;1.60;;;5.50;99.90;;;;;;4920744;29;20062;-84
2024/01/04 10:11:11;;;;;;;3.70;1.30;;;5.50;99.90;;;;;;4899266;29;20052;-83
2024/01/04 10:13:37;;;;;;;5.00;1.50;;;5.50;99.90;;;;;;4914883;29;20049;-83
2024/01/04 10:16:05;;;;;;;3.88;1.38;;;5.50;99.90;;;;;;4915151;29;20179;-84
2024/01/04 10:18:35;;;;;;;5.03;1.60;;;5.50;99.90;;;;;;4898982;29;20040;-84
2024/01/04 10:21:05;;;;;;;4.88;1.15;;;5.60;99.90;;;;;;4898875;29;20059;-83
2024/01/04 10:23:34;;;;;;;6.05;1.20;;;5.60;99.90;;;;;;4899080;29;20059;-83
2024/01/04 10:26:09;;;;;;;4.88;1.48;;;5.70;99.90;;;;;;4898800;29;20517;-84
2024/01/04 10:28:38;;;;;;;3.63;1.60;;;5.70;99.90;;;;;;4898799;29;20044;-83
2024/01/04 10:31:06;;;;;;;4.70;1.45;;;5.80;99.90;;;;;;4914629;29;20044;-83
2024/01/04 10:33:31;;;;;;;4.47;1.17;;;5.80;99.90;;;;;;4914468;29;20107;-84
2024/01/04 10:36:10;;;;;;;5.43;1.33;;;5.90;99.90;;;;;;4898879;29;20075;-83
2024/01/04 10:38:37;;;;;;;5.05;1.45;;;6.00;99.90;;;;;;4898588;29;20055;-83
2024/01/04 10:41:04;;;;;;;4.13;1.40;;;6.00;99.90;;;;;;4914474;29;20047;-83
2024/01/04 10:43:33;;;;;;;3.50;1.33;;;5.90;99.90;;;;;;4914281;29;20525;-84
2024/01/04 10:46:08;;;;;;;2.85;1.20;;;5.90;99.90;;;;;;4914505;29;20131;-84
2024/01/04 10:48:38;;;;;;;3.53;1.20;;;5.90;99.90;;;;;;4914404;29;20036;-83
2024/01/04 10:51:05;;;;;;;4.88;1.58;;;6.00;99.90;;;;;;4914480;29;20047;-83
2024/01/04 10:53:35;;;;;;;3.70;1.40;;;5.90;99.90;;;;;;4898387;29;20471;-83
2024/01/04 10:56:07;;;;;;;4.75;1.40;;;5.90;99.90;;;;;;4914524;29;20553;-83
2024/01/04 10:58:33;;;;;;;4.28;1.13;;;5.90;99.90;;;;;;4914068;29;20066;-83
2024/01/04 11:01:04;;;;;;;4.10;1.30;;;5.90;99.90;;;;;;4914275;29;20047;-83
2024/01/04 11:03:33;;;;;;;7.72;1.50;;;5.90;99.90;;;;;;4898262;29;20487;-83
2024/01/04 11:05:59;;;;;;;4.35;1.10;;;5.90;99.90;;;;;;4914279;29;20042;-83
2024/01/04 11:08:29;;;;;;;5.05;1.13;;;5.90;99.90;;;;;;4914324;29;20127;-83
2024/01/04 11:10:54;;;;;;;5.28;1.20;;;6.00;99.90;;;;;;4916734;29;20044;-84
2024/01/04 11:13:20;;;;;;;3.17;1.10;;;6.10;99.90;;;;;;4917766;29;20103;-84
2024/01/04 11:15:52;;;;;;;3.50;1.30;;;6.10;99.90;;;;;;4918236;29;20044;-83
2024/01/04 11:18:44;;;;;;;3.97;1.38;;;6.20;99.90;;;;;;4918133;29;20511;-83
2024/01/04 11:21:55;;;;;;;3.95;1.30;;;6.10;99.90;;;;;;4902178;29;20044;-84
2024/01/04 11:24:44;;;;;;;4.80;1.27;;;6.10;99.90;;;;;;4866314;29;20127;-84
2024/01/04 11:27:14;;;;;;;3.00;1.40;;;6.00;99.90;;;;;;4902063;29;20040;-83
2024/01/04 11:29:41;;;;;;;4.10;1.55;;;6.00;99.90;;;;;;4901862;29;20076;-84
2024/01/04 11:32:07;;;;;;;4.03;1.30;;;6.00;99.90;;;;;;4902155;29;20463;-83
2024/01/04 11:34:33;;;;;;;3.72;1.45;;;5.90;99.90;;;;;;4917749;29;20094;-84
2024/01/04 11:37:19;;;;;;;5.18;1.60;;;6.00;99.90;;;;;;4901653;29;20075;-83
2024/01/04 11:39:59;;;;;;;4.43;1.27;;;6.00;99.90;;;;;;4917459;29;20518;-83
2024/01/04 11:42:34;;;;;;;6.57;1.65;;;6.00;99.90;;;;;;4901788;29;20048;-83
2024/01/04 11:45:00;;;;;;;4.88;1.40;;;5.90;99.90;;;;;;4917223;29;20043;-84
2024/01/04 11:47:26;;;;;;;4.45;1.20;;;5.90;99.90;;;;;;4917558;29;20079;-83
2024/01/04 11:49:59;;;;;;;3.35;1.30;;;6.00;99.90;;;;;;4917601;29;20048;-83
2024/01/04 11:52:29;;;;;;;3.67;1.40;;;6.00;99.90;;;;;;4917333;29;20131;-83
2024/01/04 11:54:55;;;;;;;3.97;1.27;;;6.00;99.90;;;;;;4901395;29;20047;-83
2024/01/04 11:57:26;;;;;;;6.82;1.40;;;6.00;99.90;;;;;;4917317;29;20443;-83
2024/01/04 11:59:52;;;;;;;6.05;1.70;;;6.00;99.90;;;;;;4901441;29;20044;-83
2024/01/04 12:02:19;;;;;;;3.92;1.02;;;5.90;99.90;;;;;;4901528;29;20040;-83
2024/01/04 12:04:45;;;;;;;7.50;1.63;;;6.00;99.90;;;;;;4916974;29;20055;-83
2024/01/04 12:07:11;;;;;;;5.13;1.45;;;6.00;99.90;;;;;;4916892;29;20137;-83
2024/01/04 12:09:38;;;;;;;3.65;1.20;;;6.00;99.90;;;;;;4916932;29;20510;-83
2024/01/04 12:12:04;;;;;;;6.65;1.50;;;6.00;99.90;;;;;;4917086;29;20048;-83
2024/01/04 12:14:29;;;;;;;5.22;1.45;;;5.90;99.90;;;;;;4916777;29;20058;-83
2024/01/04 12:16:57;;;;;;;4.53;1.50;;;5.90;99.90;;;;;;4901053;29;20424;-83
2024/01/04 12:19:23;;;;;;;3.80;1.50;;;5.90;99.90;;;;;;4916766;29;20063;-81
2024/01/04 12:21:49;;;;;;;4.63;1.65;;;6.00;99.90;;;;;;4915680;29;20040;-81
2024/01/04 12:24:14;;;;;;;5.32;1.20;;;6.00;99.90;;;;;;4901013;29;20067;-81
2024/01/04 12:26:40;;;;;;;2.55;1.30;;;5.90;99.90;;;;;;4916700;29;20050;-81
2024/01/04 12:29:07;;;;;;;6.47;1.30;;;5.90;99.90;;;;;;4916610;29;20048;-81
2024/01/04 12:31:34;;;;;;;11.23;5.43;;;5.90;99.90;;;;;;4901229;29;20055;-81
2024/01/04 12:34:00;;;;;;;6.30;1.80;;;5.90;99.90;;;;;;4916323;29;20096;-80
2024/01/04 12:36:26;;;;;;;6.55;2.55;;;5.90;99.90;;;;;;4916525;29;20482;-81
2024/01/04 12:38:53;;;;;;;4.45;1.90;;;5.90;99.90;;;;;;4916409;29;20044;-81
2024/01/04 12:41:23;;;;;;;5.32;2.05;;;5.90;99.90;;;;;;4900598;29;20040;-81
2024/01/04 12:43:50;;;;;;;4.70;1.73;;;5.80;99.90;;;;;;4900372;29;20079;-81
2024/01/04 12:46:22;;;;;;;5.55;2.20;;;5.80;99.90;;;;;;4916384;29;20083;-81
2024/01/04 12:48:53;;;;;;;4.40;1.57;;;5.80;99.90;;;;;;4916397;29;20483;-80
2024/01/04 12:51:26;;;;;;;4.53;1.50;;;5.90;99.90;;;;;;4916210;29;20048;-81
2024/01/04 12:53:51;;;;;;;;;;;5.90;99.90;;;;;;4916439;29;20047;-81
2024/01/04 12:56:20;;;;;;;3.80;1.80;;;5.80;99.90;;;;;;4900599;29;20297;-81
2024/01/04 12:58:49;;;;;;;5.13;1.73;;;5.80;99.90;;;;;;4916158;29;20183;-80
2024/01/04 13:01:16;;;;;;;5.47;1.73;;;5.80;99.90;;;;;;4916039;29;20052;-81
2024/01/04 13:03:41;;;;;;;5.47;1.70;;;5.80;99.90;;;;;;4915711;29;20123;-80
2024/01/04 13:06:07;;;;;;;5.05;1.67;;;5.80;99.90;;;;;;4916127;29;20130;-80
2024/01/04 13:08:32;;;;;;;4.05;1.40;;;5.80;99.90;;;;;;4900069;29;20043;-81
2024/01/04 13:10:58;;;;;;;5.10;1.63;;;5.80;99.90;;;;;;4900162;29;20443;-81